createdAt,value
2018-08-28T00:01:59.420Z,16.05
2018-08-28T00:04:33.365Z,16.05
2018-08-28T00:07:00.652Z,15.93
2018-08-28T00:09:27.852Z,15.66
2018-08-28T00:11:55.053Z,15.66
2018-08-28T00:14:22.832Z,15.66
2018-08-28T00:16:50.008Z,15.62
2018-08-28T00:19:17.161Z,15.62
2018-08-28T00:21:45.620Z,15.50
2018-08-28T00:24:12.853Z,15.54
2018-08-28T00:26:40.004Z,15.59
2018-08-28T00:29:07.115Z,15.71
2018-08-28T00:31:34.271Z,15.62
2018-08-28T00:34:01.402Z,15.28
2018-08-28T00:36:28.631Z,15.46
2018-08-28T00:38:55.731Z,15.65
2018-08-28T00:41:22.864Z,15.54
2018-08-28T00:43:50.101Z,15.43
2018-08-28T00:46:17.264Z,15.50
2018-08-28T00:48:44.582Z,15.47
2018-08-28T00:51:11.864Z,15.44
2018-08-28T00:53:39.017Z,15.37
2018-08-28T00:56:06.189Z,15.33
2018-08-28T00:58:33.338Z,15.39
2018-08-28T01:01:00.548Z,15.26
2018-08-28T01:03:27.709Z,15.37
2018-08-28T01:05:54.860Z,15.37
2018-08-28T01:08:22.048Z,15.50
2018-08-28T01:10:49.154Z,15.46
2018-08-28T01:13:16.297Z,15.28
2018-08-28T01:15:44.126Z,15.12
2018-08-28T01:18:11.293Z,14.99
2018-08-28T01:20:38.412Z,15.05
2018-08-28T01:23:05.648Z,14.99
2018-08-28T01:25:32.812Z,14.91
2018-08-28T01:27:59.960Z,15.06
2018-08-28T01:30:32.033Z,15.30
2018-08-28T01:32:59.201Z,15.26
2018-08-28T01:35:33.177Z,15.25
2018-08-28T01:38:00.347Z,15.03
2018-08-28T01:40:27.948Z,14.82
2018-08-28T01:42:55.526Z,14.94
2018-08-28T01:45:22.596Z,14.93
2018-08-28T01:47:49.904Z,15.08
2018-08-28T01:50:17.100Z,15.21
2018-08-28T01:52:44.327Z,15.19
2018-08-28T01:55:11.566Z,15.11
2018-08-28T01:57:38.897Z,15.18
2018-08-28T02:00:06.340Z,15.02
2018-08-28T02:02:33.525Z,15.13
2018-08-28T02:05:00.647Z,15.29
2018-08-28T02:07:27.800Z,15.38
2018-08-28T02:09:54.980Z,15.32
2018-08-28T02:12:22.101Z,15.27
2018-08-28T02:14:49.213Z,15.03
2018-08-28T02:17:16.361Z,14.90
2018-08-28T02:19:43.473Z,15.07
2018-08-28T02:22:10.707Z,15.14
2018-08-28T02:24:37.848Z,14.88
2018-08-28T02:27:05.418Z,14.83
2018-08-28T02:29:32.600Z,14.84
2018-08-28T02:31:59.748Z,15.00
2018-08-28T02:34:26.955Z,15.10
2018-08-28T02:36:54.239Z,15.10
2018-08-28T02:39:21.348Z,15.09
2018-08-28T02:41:48.480Z,15.10
2018-08-28T02:44:15.704Z,15.06
2018-08-28T02:46:42.836Z,15.06
2018-08-28T02:49:09.971Z,15.21
2018-08-28T02:51:37.125Z,15.21
2018-08-28T02:54:04.245Z,15.07
2018-08-28T02:56:31.419Z,15.15
2018-08-28T02:58:58.553Z,15.11
2018-08-28T03:01:25.957Z,15.17
2018-08-28T03:03:53.125Z,15.21
2018-08-28T03:06:20.514Z,15.11
2018-08-28T03:08:47.868Z,15.02
2018-08-28T03:11:15.044Z,15.14
2018-08-28T03:13:42.233Z,15.20
2018-08-28T03:16:09.469Z,15.35
2018-08-28T03:18:36.656Z,15.34
2018-08-28T03:21:03.799Z,15.43
2018-08-28T03:23:38.213Z,15.51
2018-08-28T03:26:05.334Z,15.45
2018-08-28T03:28:32.485Z,15.37
2018-08-28T03:30:59.634Z,15.42
2018-08-28T03:33:26.772Z,15.45
2018-08-28T03:35:54.026Z,15.32
2018-08-28T03:38:21.324Z,15.21
2018-08-28T03:40:48.569Z,15.12
2018-08-28T03:43:15.896Z,15.20
2018-08-28T03:45:43.024Z,15.15
2018-08-28T03:48:10.216Z,15.09
2018-08-28T03:50:37.351Z,15.22
2018-08-28T03:53:05.048Z,15.24
2018-08-28T03:55:32.218Z,15.22
2018-08-28T03:57:59.356Z,15.40
2018-08-28T04:00:26.492Z,15.51
2018-08-28T04:02:53.777Z,15.53
2018-08-28T04:05:20.993Z,15.49
2018-08-28T04:07:48.173Z,15.51
2018-08-28T04:10:15.408Z,15.50
2018-08-28T04:12:42.599Z,15.48
2018-08-28T04:15:09.728Z,15.50
2018-08-28T04:17:41.355Z,15.55
2018-08-28T04:20:08.632Z,15.50
2018-08-28T04:22:35.888Z,15.53
2018-08-28T04:25:03.200Z,15.52
2018-08-28T04:27:30.344Z,15.51
2018-08-28T04:29:57.521Z,15.41
2018-08-28T04:32:24.631Z,15.48
2018-08-28T04:34:51.825Z,15.53
2018-08-28T04:37:19.108Z,15.58
2018-08-28T04:39:46.249Z,15.62
2018-08-28T04:42:13.769Z,15.62
2018-08-28T04:44:40.883Z,15.58
2018-08-28T04:47:08.124Z,15.64
2018-08-28T04:49:35.301Z,15.58
2018-08-28T04:52:02.492Z,15.59
2018-08-28T04:54:29.613Z,15.59
2018-08-28T04:56:56.781Z,15.63
2018-08-28T04:59:23.969Z,15.70
2018-08-28T05:01:51.155Z,15.69
2018-08-28T05:04:18.289Z,15.79
2018-08-28T05:06:45.416Z,15.84
2018-08-28T05:09:12.705Z,15.91
2018-08-28T05:11:39.884Z,15.90
2018-08-28T05:14:07.048Z,15.89
2018-08-28T05:16:34.235Z,15.83
2018-08-28T05:19:01.361Z,15.83
2018-08-28T05:21:28.573Z,15.76
2018-08-28T05:23:55.777Z,15.82
2018-08-28T05:26:22.889Z,15.93
2018-08-28T05:28:50.086Z,15.99
2018-08-28T05:31:17.266Z,16.04
2018-08-28T05:33:44.350Z,15.93
2018-08-28T05:36:11.604Z,15.87
2018-08-28T05:38:38.725Z,15.93
2018-08-28T05:41:05.901Z,15.21
2018-08-28T05:43:33.090Z,16.00
2018-08-28T05:46:00.229Z,16.03
2018-08-28T05:48:27.361Z,15.93
2018-08-28T05:50:54.546Z,15.95
2018-08-28T05:53:21.672Z,15.96
2018-08-28T05:55:48.924Z,15.93
2018-08-28T05:58:16.134Z,16.11
2018-08-28T06:00:43.336Z,16.15
2018-08-28T06:03:10.547Z,16.18
2018-08-28T06:05:37.631Z,16.31
2018-08-28T06:08:05.083Z,16.46
2018-08-28T06:10:32.352Z,16.60
2018-08-28T06:12:59.478Z,16.81
2018-08-28T06:15:26.574Z,17.02
2018-08-28T06:17:53.792Z,17.12
2018-08-28T06:20:20.902Z,17.27
2018-08-28T06:22:48.047Z,17.44
2018-08-28T06:25:15.314Z,17.50
2018-08-28T06:27:42.436Z,17.61
2018-08-28T06:30:09.573Z,17.67
2018-08-28T06:32:36.744Z,17.51
2018-08-28T06:35:05.078Z,17.34
2018-08-28T06:37:32.278Z,17.17
2018-08-28T06:39:59.389Z,17.14
2018-08-28T06:42:26.519Z,17.01
2018-08-28T06:44:53.773Z,16.95
2018-08-28T06:47:20.962Z,17.22
2018-08-28T06:49:48.179Z,17.22
2018-08-28T06:52:15.502Z,17.12
2018-08-28T06:54:42.638Z,17.35
2018-08-28T06:57:09.860Z,17.75
2018-08-28T06:59:37.025Z,18.02
2018-08-28T07:02:04.233Z,18.35
2018-08-28T07:04:31.468Z,18.48
2018-08-28T07:06:58.728Z,18.20
2018-08-28T07:09:25.837Z,18.56
2018-08-28T07:11:53.075Z,18.65
2018-08-28T07:14:20.221Z,18.78
2018-08-28T07:16:47.373Z,18.83
2018-08-28T07:19:14.922Z,18.94
2018-08-28T07:21:42.397Z,19.22
2018-08-28T07:24:09.525Z,19.37
2018-08-28T07:26:36.733Z,19.36
2018-08-28T07:29:03.849Z,19.34
2018-08-28T07:31:31.162Z,19.16
2018-08-28T07:33:58.416Z,18.89
2018-08-28T07:36:25.540Z,19.23
2018-08-28T07:38:52.807Z,19.41
2018-08-28T07:41:19.933Z,19.09
2018-08-28T07:43:47.035Z,19.17
2018-08-28T07:46:14.328Z,19.07
2018-08-28T07:48:41.445Z,18.94
2018-08-28T07:51:08.600Z,18.94
2018-08-28T07:53:42.744Z,18.74
2018-08-28T07:56:09.864Z,18.84
2018-08-28T07:58:37.045Z,18.96
2018-08-28T08:01:04.284Z,18.80
2018-08-28T08:03:31.439Z,18.97
2018-08-28T08:05:58.640Z,18.78
2018-08-28T08:08:25.832Z,19.17
2018-08-28T08:10:53.276Z,19.49
2018-08-28T08:13:20.580Z,19.69
2018-08-28T08:15:48.130Z,19.81
2018-08-28T08:18:15.456Z,20.18
2018-08-28T08:20:42.809Z,20.29
2018-08-28T08:23:10.153Z,20.23
2018-08-28T08:25:37.436Z,20.57
2018-08-28T08:28:04.677Z,20.37
2018-08-28T08:30:31.710Z,20.78
2018-08-28T08:32:59.193Z,20.95
2018-08-28T08:35:26.424Z,20.72
2018-08-28T08:37:53.570Z,20.72
2018-08-28T08:40:20.709Z,20.71
2018-08-28T08:42:47.846Z,20.74
2018-08-28T08:45:14.997Z,20.88
2018-08-28T08:47:42.217Z,21.24
2018-08-28T08:50:09.317Z,21.53
2018-08-28T08:52:36.463Z,21.26
2018-08-28T08:55:04.459Z,21.40
2018-08-28T08:57:31.696Z,21.29
2018-08-28T08:59:58.757Z,21.70
2018-08-28T09:02:26.069Z,21.57
2018-08-28T09:04:53.386Z,21.57
2018-08-28T09:07:20.552Z,21.51
2018-08-28T09:09:47.661Z,21.21
2018-08-28T09:12:14.803Z,20.70
2018-08-28T09:14:42.168Z,20.59
2018-08-28T09:17:09.323Z,20.61
2018-08-28T09:19:36.470Z,19.96
2018-08-28T09:22:03.648Z,19.70
2018-08-28T09:24:30.768Z,19.95
2018-08-28T09:26:58.094Z,20.11
2018-08-28T09:29:25.325Z,20.26
2018-08-28T09:31:52.469Z,20.93
2018-08-28T09:34:19.612Z,21.08
2018-08-28T09:36:46.752Z,21.10
2018-08-28T09:39:13.885Z,21.29
2018-08-28T09:41:41.174Z,21.16
2018-08-28T09:44:08.349Z,21.42
2018-08-28T09:46:35.476Z,21.88
2018-08-28T09:49:02.773Z,21.81
2018-08-28T09:51:29.899Z,21.86
2018-08-28T09:53:57.146Z,21.96
2018-08-28T09:56:24.414Z,21.74
2018-08-28T09:58:51.569Z,21.84
2018-08-28T10:01:24.612Z,21.32
2018-08-28T10:03:51.763Z,21.14
2018-08-28T10:06:18.967Z,20.93
2018-08-28T10:08:46.065Z,20.91
2018-08-28T10:11:13.152Z,21.33
2018-08-28T10:13:40.388Z,21.31
2018-08-28T10:16:07.516Z,21.07
2018-08-28T10:18:34.676Z,21.32
2018-08-28T10:21:01.884Z,21.39
2018-08-28T10:23:29.026Z,21.77
2018-08-28T10:25:56.313Z,21.99
2018-08-28T10:28:23.496Z,22.16
2018-08-28T10:30:50.707Z,22.54
2018-08-28T10:33:18.116Z,22.68
2018-08-28T10:35:45.958Z,23.07
2018-08-28T10:38:13.196Z,23.08
2018-08-28T10:40:40.369Z,23.46
2018-08-28T10:43:07.688Z,23.85
2018-08-28T10:45:34.836Z,23.98
2018-08-28T10:48:02.044Z,23.95
2018-08-28T10:50:29.205Z,24.13
2018-08-28T10:52:56.426Z,23.92
2018-08-28T10:55:23.709Z,23.74
2018-08-28T10:57:50.823Z,23.85
2018-08-28T11:00:17.947Z,23.56
2018-08-28T11:02:45.090Z,24.10
2018-08-28T11:05:12.234Z,24.75
2018-08-28T11:07:39.420Z,24.64
2018-08-28T11:10:07.045Z,23.98
2018-08-28T11:12:34.216Z,23.61
2018-08-28T11:15:01.425Z,23.53
2018-08-28T11:17:28.546Z,23.19
2018-08-28T11:19:56.356Z,23.19
2018-08-28T11:22:23.663Z,23.30
2018-08-28T11:24:50.768Z,23.68
2018-08-28T11:27:17.918Z,23.43
2018-08-28T11:29:45.193Z,23.63
2018-08-28T11:32:12.380Z,23.90
2018-08-28T11:34:39.620Z,23.83
2018-08-28T11:37:06.801Z,23.48
2018-08-28T11:39:34.002Z,23.02
2018-08-28T11:42:01.173Z,23.04
2018-08-28T11:44:28.353Z,23.81
2018-08-28T11:46:55.537Z,23.48
2018-08-28T11:49:22.769Z,23.27
2018-08-28T11:51:49.905Z,23.75
2018-08-28T11:54:17.089Z,24.25
2018-08-28T11:56:44.315Z,24.53
2018-08-28T11:59:11.450Z,24.93
2018-08-28T12:01:38.602Z,24.92
2018-08-28T12:04:06.258Z,24.62
2018-08-28T12:06:33.431Z,24.86
2018-08-28T12:09:00.605Z,25.51
2018-08-28T12:11:27.748Z,25.51
2018-08-28T12:13:54.865Z,25.89
2018-08-28T12:16:22.100Z,26.60
2018-08-28T12:18:49.240Z,26.16
2018-08-28T12:21:16.417Z,26.41
2018-08-28T12:23:43.708Z,26.70
2018-08-28T12:26:10.885Z,27.07
2018-08-28T12:28:38.100Z,27.27
2018-08-28T12:31:05.257Z,27.17
2018-08-28T12:33:32.391Z,25.86
2018-08-28T12:35:59.544Z,26.19
2018-08-28T12:38:26.777Z,26.75
2018-08-28T12:40:53.892Z,27.27
2018-08-28T12:43:21.101Z,27.56
2018-08-28T12:45:48.428Z,27.65
2018-08-28T12:48:15.610Z,27.82
2018-08-28T12:50:43.073Z,28.02
2018-08-28T12:53:10.253Z,27.70
2018-08-28T12:55:37.349Z,27.36
2018-08-28T12:58:04.879Z,27.90
2018-08-28T13:00:32.094Z,28.16
2018-08-28T13:02:59.220Z,26.66
2018-08-28T13:05:26.494Z,27.06
2018-08-28T13:07:53.748Z,27.57
2018-08-28T13:10:20.885Z,28.47
2018-08-28T13:12:48.249Z,28.28
2018-08-28T13:15:15.414Z,27.43
2018-08-28T13:17:42.772Z,28.09
2018-08-28T13:20:09.949Z,27.84
2018-08-28T13:22:37.109Z,28.37
2018-08-28T13:25:05.027Z,28.26
2018-08-28T13:27:32.229Z,29.09
2018-08-28T13:29:59.415Z,28.74
2018-08-28T13:32:26.641Z,28.96
2018-08-28T13:34:53.754Z,29.28
2018-08-28T13:37:20.905Z,27.86
2018-08-28T13:39:48.127Z,27.24
2018-08-28T13:42:15.293Z,27.45
2018-08-28T13:44:42.444Z,27.51
2018-08-28T13:47:09.764Z,28.35
2018-08-28T13:49:36.823Z,28.87
2018-08-28T13:52:04.094Z,28.15
2018-08-28T13:54:31.424Z,28.46
2018-08-28T13:56:58.501Z,27.78
2018-08-28T13:59:25.806Z,27.88
2018-08-28T14:01:52.993Z,27.68
2018-08-28T14:04:20.149Z,28.82
2018-08-28T14:06:47.490Z,27.92
2018-08-28T14:09:14.633Z,29.20
2018-08-28T14:11:42.120Z,28.90
2018-08-28T14:14:09.398Z,29.34
2018-08-28T14:16:36.549Z,29.03
2018-08-28T14:19:03.856Z,29.56
2018-08-28T14:21:31.092Z,29.66
2018-08-28T14:23:58.288Z,28.08
2018-08-28T14:26:25.557Z,28.87
2018-08-28T14:28:53.150Z,29.29
2018-08-28T14:31:20.294Z,29.41
2018-08-28T14:33:47.611Z,28.71
2018-08-28T14:36:14.895Z,28.57
2018-08-28T14:38:42.138Z,29.18
2018-08-28T14:41:09.451Z,30.03
2018-08-28T14:43:36.627Z,28.96
2018-08-28T14:46:03.806Z,28.97
2018-08-28T14:48:31.204Z,29.76
2018-08-28T14:50:58.374Z,29.93
2018-08-28T14:53:25.571Z,28.89
2018-08-28T14:55:52.758Z,28.77
2018-08-28T14:58:19.982Z,28.37
2018-08-28T15:00:47.359Z,28.64
2018-08-28T15:03:14.565Z,29.59
2018-08-28T15:05:41.732Z,29.75
2018-08-28T15:08:08.958Z,28.31
2018-08-28T15:10:36.128Z,27.32
2018-08-28T15:13:03.365Z,27.71
2018-08-28T15:15:30.731Z,27.57
2018-08-28T15:17:57.925Z,27.57
2018-08-28T15:20:25.109Z,28.51
2018-08-28T15:22:52.353Z,29.04
2018-08-28T15:25:19.526Z,28.82
2018-08-28T15:27:46.785Z,27.80
2018-08-28T15:30:14.664Z,28.23
2018-08-28T15:32:42.003Z,27.93
2018-08-28T15:35:09.292Z,28.20
2018-08-28T15:37:36.502Z,28.41
2018-08-28T15:40:04.465Z,28.02
2018-08-28T15:42:31.816Z,28.63
2018-08-28T15:44:59.084Z,28.55
2018-08-28T15:47:26.317Z,28.92
2018-08-28T15:49:53.501Z,28.58
2018-08-28T15:52:20.665Z,28.48
2018-08-28T15:54:47.828Z,28.03
2018-08-28T15:57:15.186Z,28.31
2018-08-28T15:59:43.078Z,27.55
2018-08-28T16:02:10.661Z,27.71
2018-08-28T16:04:37.871Z,27.23
2018-08-28T16:07:05.025Z,27.22
2018-08-28T16:09:32.214Z,27.27
2018-08-28T16:11:59.450Z,27.04
2018-08-28T16:14:26.626Z,27.21
2018-08-28T16:16:53.789Z,27.01
2018-08-28T16:19:21.100Z,27.18
2018-08-28T16:21:55.050Z,26.67
2018-08-28T16:24:22.538Z,26.77
2018-08-28T16:26:49.749Z,26.00
2018-08-28T16:29:16.914Z,25.66
2018-08-28T16:31:44.960Z,25.09
2018-08-28T16:34:12.300Z,25.35
2018-08-28T16:36:39.923Z,25.20
2018-08-28T16:39:08.319Z,25.42
2018-08-28T16:41:35.879Z,25.51
2018-08-28T16:44:03.073Z,25.46
2018-08-28T16:46:30.252Z,25.45
2018-08-28T16:48:57.734Z,25.20
2018-08-28T16:51:25.036Z,25.18
2018-08-28T16:53:52.189Z,25.28
2018-08-28T16:56:19.404Z,25.12
2018-08-28T16:58:46.584Z,24.95
2018-08-28T17:01:13.990Z,24.72
2018-08-28T17:03:41.287Z,24.70
2018-08-28T17:06:08.456Z,24.72
2018-08-28T17:08:35.757Z,24.63
2018-08-28T17:11:02.913Z,24.70
2018-08-28T17:13:30.109Z,24.58
2018-08-28T17:15:57.601Z,24.19
2018-08-28T17:18:24.809Z,24.10
2018-08-28T17:20:51.953Z,24.08
2018-08-28T17:23:19.187Z,23.97
2018-08-28T17:25:46.300Z,23.79
2018-08-28T17:28:13.681Z,23.67
2018-08-28T17:30:40.939Z,23.46
2018-08-28T17:33:08.177Z,23.43
2018-08-28T17:35:35.435Z,23.29
2018-08-28T17:38:02.650Z,23.34
2018-08-28T17:40:29.808Z,23.21
2018-08-28T17:42:56.994Z,23.14
2018-08-28T17:45:24.161Z,22.91
2018-08-28T17:47:51.295Z,22.86
2018-08-28T17:50:18.497Z,22.75
2018-08-28T17:52:45.686Z,22.65
2018-08-28T17:55:13.083Z,22.54
2018-08-28T17:57:40.396Z,22.59
2018-08-28T18:00:07.769Z,22.37
2018-08-28T18:02:34.952Z,22.41
2018-08-28T18:05:02.279Z,22.11
2018-08-28T18:07:29.436Z,22.02
2018-08-28T18:09:56.656Z,22.01
2018-08-28T18:12:23.816Z,21.84
2018-08-28T18:14:51.984Z,21.77
2018-08-28T18:17:19.245Z,21.78
2018-08-28T18:19:46.369Z,21.19
2018-08-28T18:22:13.509Z,21.06
2018-08-28T18:24:40.764Z,20.96
2018-08-28T18:27:07.964Z,20.40
2018-08-28T18:29:35.225Z,20.52
2018-08-28T18:32:02.380Z,20.52
2018-08-28T18:34:29.597Z,20.53
2018-08-28T18:36:56.883Z,20.49
2018-08-28T18:39:24.195Z,20.47
2018-08-28T18:41:51.403Z,20.70
2018-08-28T18:44:18.761Z,20.64
2018-08-28T18:46:46.040Z,20.39
2018-08-28T18:49:13.234Z,20.30
2018-08-28T18:51:40.495Z,20.10
2018-08-28T18:54:07.732Z,20.08
2018-08-28T18:56:34.862Z,20.18
2018-08-28T18:59:02.178Z,20.27
2018-08-28T19:01:29.365Z,20.17
2018-08-28T19:03:56.529Z,20.12
2018-08-28T19:06:23.753Z,20.05
2018-08-28T19:08:51.039Z,20.16
2018-08-28T19:11:18.651Z,19.80
2018-08-28T19:13:46.216Z,19.93
2018-08-28T19:16:14.335Z,19.90
2018-08-28T19:18:41.533Z,19.89
2018-08-28T19:21:09.316Z,19.44
2018-08-28T19:23:36.513Z,19.10
2018-08-28T19:26:04.401Z,19.36
2018-08-28T19:28:31.562Z,19.55
2018-08-28T19:30:59.064Z,19.40
2018-08-28T19:33:26.526Z,19.56
2018-08-28T19:35:53.777Z,19.34
2018-08-28T19:38:21.036Z,18.65
2018-08-28T19:40:48.163Z,18.78
2018-08-28T19:43:15.432Z,18.57
2018-08-28T19:45:43.187Z,18.06
2018-08-28T19:48:10.347Z,18.35
2018-08-28T19:50:37.640Z,18.24
2018-08-28T19:53:04.787Z,18.29
2018-08-28T19:55:31.984Z,18.28
2018-08-28T19:57:59.148Z,17.61
2018-08-28T20:00:26.384Z,17.87
2018-08-28T20:02:53.623Z,18.08
2018-08-28T20:05:20.917Z,18.25
2018-08-28T20:07:48.097Z,18.14
2018-08-28T20:10:15.378Z,17.81
2018-08-28T20:12:42.572Z,17.36
2018-08-28T20:15:09.737Z,17.16
2018-08-28T20:17:37.124Z,17.52
2018-08-28T20:20:05.436Z,17.67
2018-08-28T20:22:32.642Z,17.87
2018-08-28T20:24:59.936Z,17.95
2018-08-28T20:27:27.116Z,17.97
2018-08-28T20:29:54.475Z,17.99
2018-08-28T20:32:21.563Z,17.64
2018-08-28T20:34:48.720Z,17.70
2018-08-28T20:37:15.929Z,17.70
2018-08-28T20:39:43.085Z,17.23
2018-08-28T20:42:10.208Z,16.90
2018-08-28T20:44:37.395Z,16.57
2018-08-28T20:47:04.945Z,16.93
2018-08-28T20:49:32.095Z,17.09
2018-08-28T20:51:59.420Z,16.86
2018-08-28T20:54:26.604Z,17.01
2018-08-28T20:56:53.726Z,17.11
2018-08-28T20:59:20.937Z,17.20
2018-08-28T21:01:48.099Z,17.12
2018-08-28T21:04:15.289Z,16.85
2018-08-28T21:06:42.551Z,16.50
2018-08-28T21:09:09.720Z,16.48
2018-08-28T21:11:36.968Z,16.46
2018-08-28T21:14:04.184Z,16.48
2018-08-28T21:16:31.384Z,16.52
2018-08-28T21:18:58.629Z,16.40
2018-08-28T21:21:25.791Z,16.27
2018-08-28T21:23:53.050Z,16.30
2018-08-28T21:26:20.274Z,16.50
2018-08-28T21:28:47.453Z,16.42
2018-08-28T21:31:14.627Z,16.19
2018-08-28T21:33:41.866Z,15.99
2018-08-28T21:36:09.094Z,15.48
2018-08-28T21:38:36.294Z,15.53
2018-08-28T21:41:03.517Z,15.54
2018-08-28T21:43:30.668Z,15.70
2018-08-28T21:45:58.012Z,15.76
2018-08-28T21:48:25.209Z,15.50
2018-08-28T21:50:52.401Z,15.50
2018-08-28T21:53:19.552Z,15.56
2018-08-28T21:55:46.696Z,15.53
2018-08-28T21:58:13.772Z,15.59
2018-08-28T22:00:41.064Z,15.69
2018-08-28T22:03:08.244Z,15.67
2018-08-28T22:05:35.477Z,15.63
2018-08-28T22:08:04.054Z,15.60
2018-08-28T22:10:31.715Z,15.50
2018-08-28T22:12:58.873Z,15.51
2018-08-28T22:15:26.050Z,15.37
2018-08-28T22:17:53.739Z,15.11
2018-08-28T22:20:21.036Z,14.99
2018-08-28T22:22:48.285Z,15.24
2018-08-28T22:25:15.453Z,15.16
2018-08-28T22:27:42.633Z,15.16
2018-08-28T22:30:10.489Z,15.15
2018-08-28T22:32:38.050Z,15.11
2018-08-28T22:35:05.464Z,15.09
2018-08-28T22:37:32.792Z,15.10
2018-08-28T22:39:59.925Z,15.19
2018-08-28T22:42:27.072Z,15.17
2018-08-28T22:44:54.217Z,14.86
2018-08-28T22:47:21.310Z,14.82
2018-08-28T22:49:48.547Z,14.86
2018-08-28T22:52:15.648Z,14.93
2018-08-28T22:54:42.836Z,14.94
2018-08-28T22:57:09.985Z,14.90
2018-08-28T22:59:37.116Z,15.01
2018-08-28T23:02:04.557Z,14.76
2018-08-28T23:04:31.753Z,14.66
2018-08-28T23:06:58.857Z,14.77
2018-08-28T23:09:26.118Z,14.73
2018-08-28T23:12:00.005Z,14.67
2018-08-28T23:14:27.157Z,14.73
2018-08-28T23:16:54.299Z,14.59
2018-08-28T23:19:21.477Z,14.79
2018-08-28T23:21:48.746Z,14.68
2018-08-28T23:24:16.075Z,14.70
2018-08-28T23:26:43.409Z,14.64
2018-08-28T23:29:10.588Z,14.42
2018-08-28T23:31:37.684Z,14.32
2018-08-28T23:34:04.895Z,14.38
2018-08-28T23:39:06.521Z,14.41
2018-08-28T23:41:33.688Z,14.29
2018-08-28T23:44:01.044Z,14.35
2018-08-28T23:46:28.196Z,14.30
2018-08-28T23:48:55.305Z,14.23
2018-08-28T23:51:22.501Z,14.20
2018-08-28T23:53:49.589Z,14.18
2018-08-28T23:56:16.772Z,14.12
2018-08-28T23:58:44.116Z,13.99
